createdAt,value
2017-12-05T00:00:50.500Z,7.00
2017-12-05T00:01:53.016Z,6.90
2017-12-05T00:02:55.561Z,7.40
2017-12-05T00:03:58.081Z,7.72
2017-12-05T00:05:00.593Z,7.25
2017-12-05T00:06:03.147Z,5.78
2017-12-05T00:07:06.437Z,6.00
2017-12-05T00:08:08.962Z,6.03
2017-12-05T00:09:11.507Z,5.30
2017-12-05T00:10:14.020Z,5.95
2017-12-05T00:11:17.309Z,4.90
2017-12-05T00:12:20.593Z,5.82
2017-12-05T00:13:23.879Z,5.43
2017-12-05T00:14:27.196Z,6.25
2017-12-05T00:15:29.762Z,5.93
2017-12-05T00:16:32.292Z,6.43
2017-12-05T00:17:34.804Z,5.30
2017-12-05T00:18:37.373Z,4.55
2017-12-05T00:19:39.890Z,5.60
2017-12-05T00:20:42.459Z,5.25
2017-12-05T00:21:45.778Z,5.55
2017-12-05T00:22:48.291Z,5.47
2017-12-05T00:23:50.815Z,4.50
2017-12-05T00:24:53.318Z,4.40
2017-12-05T00:25:55.841Z,4.20
2017-12-05T00:26:58.384Z,4.50
2017-12-05T00:28:00.939Z,4.47
2017-12-05T00:29:03.462Z,4.20
2017-12-05T00:30:06.206Z,3.85
2017-12-05T00:31:08.731Z,3.70
2017-12-05T00:32:11.243Z,4.20
2017-12-05T00:33:13.802Z,4.45
2017-12-05T00:34:16.321Z,4.07
2017-12-05T00:35:18.855Z,3.85
2017-12-05T00:36:21.368Z,3.67
2017-12-05T00:37:23.911Z,3.35
2017-12-05T00:38:26.486Z,4.20
2017-12-05T00:39:29.014Z,3.92
2017-12-05T00:40:31.528Z,3.90
2017-12-05T00:41:34.801Z,4.05
2017-12-05T00:42:37.320Z,3.65
2017-12-05T00:43:39.876Z,3.30
2017-12-05T00:44:42.392Z,4.53
2017-12-05T00:45:44.909Z,4.20
2017-12-05T00:46:47.432Z,3.92
2017-12-05T00:47:49.941Z,4.10
2017-12-05T00:48:52.585Z,3.42
2017-12-05T00:49:55.865Z,3.30
2017-12-05T00:50:59.148Z,3.62
2017-12-05T00:52:01.674Z,3.75
2017-12-05T00:53:04.224Z,4.07
2017-12-05T00:54:06.793Z,3.62
2017-12-05T00:55:09.313Z,3.40
2017-12-05T00:56:12.597Z,3.62
2017-12-05T00:57:15.874Z,2.92
2017-12-05T00:58:19.202Z,3.70
2017-12-05T00:59:21.729Z,3.65
2017-12-05T01:00:25.020Z,3.75
2017-12-05T01:01:28.300Z,3.50
2017-12-05T01:02:31.585Z,4.75
2017-12-05T01:03:34.911Z,3.22
2017-12-05T01:04:37.426Z,3.78
2017-12-05T01:05:40.722Z,4.00
2017-12-05T01:06:43.238Z,3.45
2017-12-05T01:07:45.756Z,4.22
2017-12-05T01:08:48.316Z,4.12
2017-12-05T01:09:51.643Z,4.05
2017-12-05T01:10:54.159Z,4.10
2017-12-05T01:11:57.447Z,3.55
2017-12-05T01:13:00.742Z,4.28
2017-12-05T01:14:03.295Z,4.18
2017-12-05T01:15:06.609Z,4.10
2017-12-05T01:16:09.124Z,4.18
2017-12-05T01:17:11.642Z,3.70
2017-12-05T01:18:14.150Z,4.05
2017-12-05T01:19:16.670Z,3.67
2017-12-05T01:20:19.226Z,4.70
2017-12-05T01:21:21.742Z,3.92
2017-12-05T01:22:24.261Z,4.22
2017-12-05T01:23:26.779Z,4.35
2017-12-05T01:24:29.291Z,4.82
2017-12-05T01:25:31.841Z,4.70
2017-12-05T01:26:35.120Z,5.80
2017-12-05T01:27:38.409Z,6.00
2017-12-05T01:28:41.778Z,4.30
2017-12-05T01:29:44.339Z,4.60
2017-12-05T01:30:46.857Z,5.45
2017-12-05T01:31:49.385Z,5.97
2017-12-05T01:32:51.942Z,5.18
2017-12-05T01:33:54.502Z,5.30
2017-12-05T01:34:57.053Z,6.30
2017-12-05T01:35:59.569Z,6.82
2017-12-05T01:37:02.088Z,4.70
2017-12-05T01:38:04.605Z,6.12
2017-12-05T01:39:07.181Z,5.45
2017-12-05T01:40:09.732Z,5.60
2017-12-05T01:41:12.251Z,5.70
2017-12-05T01:42:14.764Z,4.97
2017-12-05T01:43:17.290Z,5.53
2017-12-05T01:44:19.862Z,6.30
2017-12-05T01:45:22.386Z,6.03
2017-12-05T01:46:24.935Z,6.87
2017-12-05T01:47:27.458Z,5.65
2017-12-05T01:48:29.980Z,6.35
2017-12-05T01:49:32.530Z,6.37
2017-12-05T01:50:35.250Z,4.93
2017-12-05T01:51:37.767Z,5.45
2017-12-05T01:52:40.290Z,7.10
2017-12-05T01:53:42.853Z,6.65
2017-12-05T01:54:45.370Z,5.85
2017-12-05T01:55:47.941Z,6.85
2017-12-05T01:56:50.476Z,6.60
2017-12-05T01:57:53.776Z,7.75
2017-12-05T01:58:56.301Z,6.22
2017-12-05T01:59:58.826Z,6.30
2017-12-05T02:01:02.243Z,6.72
2017-12-05T02:02:04.756Z,6.32
2017-12-05T02:04:16.330Z,7.32
2017-12-05T02:05:19.636Z,8.00
2017-12-05T02:06:22.197Z,7.40
2017-12-05T02:07:24.718Z,6.93
2017-12-05T02:08:27.234Z,7.87
2017-12-05T02:09:29.753Z,6.80
2017-12-05T02:10:32.281Z,7.40
2017-12-05T02:11:34.833Z,8.50
2017-12-05T02:12:37.347Z,7.55
2017-12-05T02:13:39.878Z,6.68
2017-12-05T02:14:42.479Z,7.57
2017-12-05T02:15:44.999Z,8.60
2017-12-05T02:16:47.564Z,6.28
2017-12-05T02:17:50.077Z,7.12
2017-12-05T02:18:52.603Z,7.45
2017-12-05T02:19:55.129Z,7.97
2017-12-05T02:20:58.418Z,8.35
2017-12-05T02:22:01.733Z,7.85
2017-12-05T02:23:04.267Z,7.45
2017-12-05T02:24:07.551Z,7.37
2017-12-05T02:25:10.841Z,7.12
2017-12-05T02:26:14.157Z,7.20
2017-12-05T02:27:16.673Z,7.00
2017-12-05T02:28:19.200Z,6.55
2017-12-05T02:29:21.746Z,7.62
2017-12-05T02:30:24.263Z,6.60
2017-12-05T02:31:26.817Z,6.68
2017-12-05T02:32:29.367Z,6.90
2017-12-05T02:33:31.899Z,6.93
2017-12-05T02:34:34.419Z,6.85
2017-12-05T02:35:36.937Z,6.25
2017-12-05T02:36:39.513Z,6.80
2017-12-05T02:37:42.033Z,6.95
2017-12-05T02:38:44.691Z,7.15
2017-12-05T02:39:47.216Z,7.05
2017-12-05T02:41:01.806Z,6.57
2017-12-05T02:42:04.366Z,7.00
2017-12-05T02:43:06.926Z,6.72
2017-12-05T02:44:09.440Z,6.65
2017-12-05T02:45:11.978Z,6.65
2017-12-05T02:46:14.507Z,7.10
2017-12-05T02:47:17.023Z,6.85
2017-12-05T02:48:20.335Z,7.90
2017-12-05T02:49:22.853Z,7.25
2017-12-05T02:50:25.366Z,8.07
2017-12-05T02:51:27.886Z,7.85
2017-12-05T02:52:30.442Z,7.28
2017-12-05T02:53:33.003Z,7.75
2017-12-05T02:54:35.525Z,7.60
2017-12-05T02:55:38.042Z,7.43
2017-12-05T02:56:40.593Z,7.32
2017-12-05T02:57:43.116Z,8.40
2017-12-05T02:58:45.745Z,7.25
2017-12-05T02:59:48.272Z,7.35
2017-12-05T03:00:50.789Z,6.75
2017-12-05T03:01:53.306Z,8.35
2017-12-05T03:02:55.818Z,7.68
2017-12-05T03:03:58.377Z,7.80
2017-12-05T03:05:00.898Z,8.43
2017-12-05T03:06:03.413Z,7.93
2017-12-05T03:07:05.951Z,7.93
2017-12-05T03:08:08.506Z,7.57
2017-12-05T03:09:11.026Z,6.70
2017-12-05T03:10:14.352Z,7.32
2017-12-05T03:11:16.865Z,7.45
2017-12-05T03:12:19.385Z,8.00
2017-12-05T03:13:21.913Z,7.15
2017-12-05T03:14:25.191Z,7.70
2017-12-05T03:15:28.516Z,6.18
2017-12-05T03:16:31.029Z,8.10
2017-12-05T03:17:33.547Z,7.00
2017-12-05T03:18:36.062Z,7.22
2017-12-05T03:19:38.578Z,7.20
2017-12-05T03:20:41.261Z,7.00
2017-12-05T03:21:43.783Z,7.97
2017-12-05T03:22:47.061Z,7.40
2017-12-05T03:23:50.341Z,7.37
2017-12-05T03:24:53.656Z,7.35
2017-12-05T03:25:56.189Z,7.18
2017-12-05T03:26:59.511Z,8.05
2017-12-05T03:28:02.064Z,6.57
2017-12-05T03:29:04.592Z,8.93
2017-12-05T03:30:07.117Z,7.00
2017-12-05T03:31:09.679Z,6.35
2017-12-05T03:32:12.200Z,7.50
2017-12-05T03:33:14.722Z,7.62
2017-12-05T03:34:17.254Z,7.30
2017-12-05T03:35:20.642Z,7.30
2017-12-05T03:36:23.205Z,8.00
2017-12-05T03:37:25.721Z,8.25
2017-12-05T03:38:28.272Z,8.57
2017-12-05T03:39:30.776Z,8.25
2017-12-05T03:40:33.291Z,8.57
2017-12-05T03:41:35.853Z,8.45
2017-12-05T03:42:38.419Z,8.80
2017-12-05T03:43:41.675Z,8.50
2017-12-05T03:44:44.965Z,7.72
2017-12-05T03:45:47.506Z,8.20
2017-12-05T03:46:50.065Z,8.00
2017-12-05T03:47:52.586Z,8.10
2017-12-05T03:48:55.144Z,8.40
2017-12-05T03:49:57.670Z,7.78
2017-12-05T03:51:00.193Z,8.98
2017-12-05T03:52:02.728Z,8.90
2017-12-05T03:53:05.249Z,9.82
2017-12-05T03:54:07.816Z,9.15
2017-12-05T03:55:10.343Z,9.05
2017-12-05T03:56:12.857Z,8.93
2017-12-05T03:57:15.373Z,8.73
2017-12-05T03:58:17.893Z,8.18
2017-12-05T03:59:20.450Z,9.45
2017-12-05T04:00:22.978Z,8.23
2017-12-05T04:01:25.500Z,10.40
2017-12-05T04:02:28.013Z,9.00
2017-12-05T04:03:30.532Z,8.93
2017-12-05T04:04:33.844Z,9.35
2017-12-05T04:05:36.365Z,9.00
2017-12-05T04:06:38.885Z,9.13
2017-12-05T04:07:41.417Z,10.15
2017-12-05T04:08:44.741Z,10.40
2017-12-05T04:09:47.295Z,10.60
2017-12-05T04:10:49.932Z,9.80
2017-12-05T04:11:52.573Z,9.15
2017-12-05T04:12:55.084Z,8.95
2017-12-05T04:13:58.371Z,9.70
2017-12-05T04:15:01.660Z,9.68
2017-12-05T04:16:04.242Z,9.82
2017-12-05T04:17:06.806Z,9.50
2017-12-05T04:18:09.320Z,8.88
2017-12-05T04:19:11.837Z,9.27
2017-12-05T04:20:14.353Z,10.85
2017-12-05T04:21:16.870Z,10.85
2017-12-05T04:22:19.438Z,10.48
2017-12-05T04:23:21.962Z,9.63
2017-12-05T04:24:25.260Z,10.15
2017-12-05T04:25:28.549Z,10.85
2017-12-05T04:26:31.836Z,11.05
2017-12-05T04:27:34.388Z,11.90
2017-12-05T04:28:37.685Z,12.52
2017-12-05T04:29:40.219Z,12.45
2017-12-05T04:30:42.742Z,12.98
2017-12-05T04:31:45.297Z,12.00
2017-12-05T04:32:47.824Z,11.57
2017-12-05T04:33:50.360Z,12.70
2017-12-05T04:34:52.873Z,13.20
2017-12-05T04:35:56.197Z,13.48
2017-12-05T04:36:58.718Z,12.50
2017-12-05T04:38:02.048Z,11.25
2017-12-05T04:39:04.569Z,12.48
2017-12-05T04:40:07.863Z,11.55
2017-12-05T04:41:11.282Z,12.93
2017-12-05T04:42:13.805Z,13.27
2017-12-05T04:43:17.130Z,11.30
2017-12-05T04:44:19.645Z,13.65
2017-12-05T04:45:22.163Z,13.25
2017-12-05T04:46:24.681Z,13.40
2017-12-05T04:47:27.964Z,12.85
2017-12-05T04:48:31.292Z,14.05
2017-12-05T04:49:33.821Z,14.20
2017-12-05T04:50:37.116Z,15.18
2017-12-05T04:51:40.402Z,15.40
2017-12-05T04:52:43.685Z,16.00
2017-12-05T04:53:47.006Z,14.87
2017-12-05T04:54:49.524Z,15.35
2017-12-05T04:55:52.813Z,14.68
2017-12-05T04:56:56.130Z,14.93
2017-12-05T04:57:58.657Z,14.25
2017-12-05T04:59:01.944Z,14.75
2017-12-05T05:00:04.476Z,13.80
2017-12-05T05:01:07.033Z,14.10
2017-12-05T05:02:09.553Z,13.80
2017-12-05T05:03:12.081Z,13.82
2017-12-05T05:04:14.666Z,14.35
2017-12-05T05:05:17.956Z,14.23
2017-12-05T05:06:21.249Z,15.27
2017-12-05T05:07:24.533Z,14.65
2017-12-05T05:08:27.813Z,14.10
2017-12-05T05:09:30.386Z,13.90
2017-12-05T05:10:32.913Z,13.27
2017-12-05T05:11:35.433Z,15.20
2017-12-05T05:12:37.957Z,14.10
2017-12-05T05:13:40.477Z,14.93
2017-12-05T05:14:43.036Z,14.98
2017-12-05T05:15:45.584Z,14.15
2017-12-05T05:16:48.114Z,13.13
2017-12-05T05:17:50.646Z,15.13
2017-12-05T05:18:53.191Z,15.40
2017-12-05T05:19:55.718Z,15.63
2017-12-05T05:20:58.279Z,15.43
2017-12-05T05:22:00.797Z,16.90
2017-12-05T05:23:03.316Z,16.65
2017-12-05T05:24:05.844Z,16.08
2017-12-05T05:25:08.361Z,16.95
2017-12-05T05:26:10.921Z,15.05
2017-12-05T05:27:14.222Z,14.55
2017-12-05T05:28:16.758Z,15.85
2017-12-05T05:29:19.281Z,20.33
2017-12-05T05:30:21.808Z,15.82
2017-12-05T05:31:25.154Z,15.55
2017-12-05T05:32:28.477Z,16.45
2017-12-05T05:33:31.760Z,18.05
2017-12-05T05:34:35.041Z,17.35
2017-12-05T05:35:38.325Z,15.75
2017-12-05T05:36:41.670Z,17.75
2017-12-05T05:37:44.185Z,18.15
2017-12-05T05:38:47.470Z,14.23
2017-12-05T05:39:50.760Z,16.92
2017-12-05T05:40:54.045Z,17.83
2017-12-05T05:41:56.609Z,17.50
2017-12-05T05:42:59.122Z,15.52
2017-12-05T05:44:01.693Z,16.98
2017-12-05T05:45:04.218Z,18.35
2017-12-05T05:46:06.734Z,16.20
2017-12-05T05:47:09.246Z,14.80
2017-12-05T05:48:11.774Z,16.80
2017-12-05T05:49:14.342Z,15.60
2017-12-05T05:50:16.862Z,17.52
2017-12-05T05:51:19.393Z,15.90
2017-12-05T05:52:22.679Z,15.45
2017-12-05T05:53:25.962Z,16.35
2017-12-05T05:54:29.273Z,16.52
2017-12-05T05:55:31.794Z,16.35
2017-12-05T05:56:35.104Z,15.98
2017-12-05T05:57:37.629Z,15.15
2017-12-05T05:58:40.146Z,13.80
2017-12-05T05:59:42.701Z,14.93
2017-12-05T06:00:46.000Z,15.88
2017-12-05T06:01:48.513Z,14.18
2017-12-05T06:02:51.043Z,13.80
2017-12-05T06:03:53.569Z,14.45
2017-12-05T06:04:56.882Z,15.88
2017-12-05T06:05:59.407Z,15.68
2017-12-05T06:07:01.965Z,13.73
2017-12-05T06:08:04.478Z,11.63
2017-12-05T06:09:06.993Z,13.02
2017-12-05T06:10:09.517Z,14.40
2017-12-05T06:11:12.035Z,15.23
2017-12-05T06:12:14.585Z,15.32
2017-12-05T06:13:17.155Z,15.15
2017-12-05T06:14:19.665Z,15.52
2017-12-05T06:15:22.184Z,15.20
2017-12-05T06:16:24.739Z,14.45
2017-12-05T06:17:27.264Z,14.65
2017-12-05T06:18:29.787Z,14.98
2017-12-05T06:19:32.315Z,15.18
2017-12-05T06:20:34.835Z,15.85
2017-12-05T06:21:37.393Z,15.55
2017-12-05T06:22:39.921Z,15.35
2017-12-05T06:23:42.441Z,14.60
2017-12-05T06:24:45.736Z,15.10
2017-12-05T06:25:48.264Z,15.18
2017-12-05T06:26:50.832Z,17.58
2017-12-05T06:27:53.389Z,17.70
2017-12-05T06:28:55.914Z,16.77
2017-12-05T06:29:58.435Z,18.05
2017-12-05T06:31:00.949Z,15.73
2017-12-05T06:32:03.510Z,17.05
2017-12-05T06:33:06.034Z,17.37
2017-12-05T06:34:08.556Z,14.93
2017-12-05T06:35:11.147Z,15.85
2017-12-05T06:36:13.674Z,16.10
2017-12-05T06:37:16.266Z,15.88
2017-12-05T06:38:18.769Z,14.68
2017-12-05T06:39:21.285Z,17.00
2017-12-05T06:40:23.834Z,16.55
2017-12-05T06:41:26.353Z,17.05
2017-12-05T06:42:28.871Z,17.15
2017-12-05T06:43:31.421Z,16.02
2017-12-05T06:44:34.698Z,14.87
2017-12-05T06:45:37.998Z,16.62
2017-12-05T06:46:40.556Z,15.07
2017-12-05T06:47:43.845Z,15.90
2017-12-05T06:48:46.366Z,14.75
2017-12-05T06:49:48.891Z,14.95
2017-12-05T06:50:51.408Z,15.32
2017-12-05T06:51:54.077Z,14.85
2017-12-05T06:52:56.593Z,15.13
2017-12-05T06:53:59.109Z,15.02
2017-12-05T06:55:01.630Z,15.38
2017-12-05T06:56:04.140Z,14.27
2017-12-05T06:57:06.713Z,13.75
2017-12-05T06:58:09.242Z,14.48
2017-12-05T06:59:11.760Z,14.52
2017-12-05T07:00:15.049Z,15.15
2017-12-05T07:01:17.570Z,13.73
2017-12-05T07:02:20.126Z,15.40
2017-12-05T07:03:22.682Z,15.27
2017-12-05T07:04:25.237Z,15.55
2017-12-05T07:05:27.780Z,14.93
2017-12-05T07:06:30.318Z,16.60
2017-12-05T07:07:32.833Z,15.80
2017-12-05T07:08:35.350Z,16.60
2017-12-05T07:09:37.917Z,14.50
2017-12-05T07:10:40.430Z,15.98
2017-12-05T07:11:42.962Z,16.17
2017-12-05T07:12:46.259Z,15.73
2017-12-05T07:13:49.553Z,15.38
2017-12-05T07:14:52.110Z,16.75
2017-12-05T07:15:55.405Z,17.27
2017-12-05T07:16:57.961Z,16.37
2017-12-05T07:18:01.262Z,16.98
2017-12-05T07:19:03.777Z,14.85
2017-12-05T07:20:06.303Z,16.58
2017-12-05T07:21:08.838Z,16.10
2017-12-05T07:22:12.162Z,15.38
2017-12-05T07:23:14.680Z,15.93
2017-12-05T07:24:17.972Z,15.32
2017-12-05T07:25:21.278Z,17.48
2017-12-05T07:26:23.793Z,16.45
2017-12-05T07:27:26.345Z,17.35
2017-12-05T07:28:28.898Z,17.83
2017-12-05T07:29:31.421Z,15.95
2017-12-05T07:30:34.705Z,15.00
2017-12-05T07:31:37.989Z,16.98
2017-12-05T07:32:41.329Z,15.15
2017-12-05T07:33:43.846Z,13.90
2017-12-05T07:34:47.132Z,14.18
2017-12-05T07:35:49.658Z,13.55
2017-12-05T07:36:52.189Z,15.93
2017-12-05T07:37:54.753Z,15.15
2017-12-05T07:38:57.270Z,16.27
2017-12-05T07:40:00.565Z,13.68
2017-12-05T07:41:03.844Z,14.15
2017-12-05T07:42:07.134Z,15.35
2017-12-05T07:43:10.477Z,14.93
2017-12-05T07:44:12.996Z,14.18
2017-12-05T07:45:15.537Z,13.95
2017-12-05T07:46:18.061Z,13.07
2017-12-05T07:47:20.593Z,13.77
2017-12-05T07:48:23.306Z,13.75
2017-12-05T07:49:25.858Z,16.35
2017-12-05T07:50:28.377Z,14.65
2017-12-05T07:51:31.711Z,15.05
2017-12-05T07:52:34.224Z,13.98
2017-12-05T07:53:36.776Z,14.25
2017-12-05T07:54:39.297Z,14.63
2017-12-05T07:55:41.817Z,14.38
2017-12-05T07:56:44.337Z,13.70
2017-12-05T07:57:46.901Z,12.15
2017-12-05T07:58:49.419Z,12.85
2017-12-05T07:59:51.943Z,12.85
2017-12-05T08:00:54.458Z,13.15
2017-12-05T08:01:57.752Z,12.52
2017-12-05T08:03:01.074Z,11.65
2017-12-05T08:04:03.618Z,11.15
2017-12-05T08:05:06.130Z,12.07
2017-12-05T08:06:08.656Z,11.70
2017-12-05T08:07:11.197Z,11.75
2017-12-05T08:08:14.478Z,10.85
2017-12-05T08:09:17.768Z,12.88
2017-12-05T08:10:20.293Z,13.00
2017-12-05T08:11:23.100Z,13.30
2017-12-05T08:12:26.427Z,10.38
2017-12-05T08:13:28.941Z,11.20
2017-12-05T08:14:32.225Z,11.50
2017-12-05T08:15:35.514Z,12.30
2017-12-05T08:16:38.799Z,11.38
2017-12-05T08:17:42.117Z,12.95
2017-12-05T08:18:44.642Z,12.37
2017-12-05T08:19:47.930Z,12.82
2017-12-05T08:20:51.222Z,13.65
2017-12-05T08:21:54.545Z,13.02
2017-12-05T08:22:57.074Z,11.77
2017-12-05T08:24:00.358Z,12.55
2017-12-05T08:25:03.653Z,13.55
2017-12-05T08:26:06.240Z,11.63
2017-12-05T08:27:08.761Z,11.95
2017-12-05T08:28:12.049Z,11.73
2017-12-05T08:29:15.338Z,11.80
2017-12-05T08:30:18.616Z,10.73
2017-12-05T08:31:21.943Z,12.15
2017-12-05T08:32:24.452Z,11.60
2017-12-05T08:33:26.981Z,11.80
2017-12-05T08:34:29.498Z,11.60
2017-12-05T08:35:32.793Z,11.57
2017-12-05T08:36:36.117Z,11.12
2017-12-05T08:37:38.640Z,11.00
2017-12-05T08:38:41.968Z,11.82
2017-12-05T08:39:44.485Z,12.52
2017-12-05T08:40:47.778Z,12.55
2017-12-05T08:41:50.291Z,11.65
2017-12-05T08:42:52.816Z,13.00
2017-12-05T08:43:55.378Z,12.85
2017-12-05T08:44:57.905Z,12.98
2017-12-05T08:46:00.413Z,11.30
2017-12-05T08:47:02.934Z,10.75
2017-12-05T08:48:05.450Z,12.43
2017-12-05T08:49:08.014Z,12.07
2017-12-05T08:50:10.583Z,11.32
2017-12-05T08:51:13.104Z,12.82
2017-12-05T08:52:15.616Z,11.27
2017-12-05T08:53:18.129Z,11.40
2017-12-05T08:54:21.463Z,12.27
2017-12-05T08:55:24.016Z,12.65
2017-12-05T08:56:27.296Z,13.35
2017-12-05T08:57:30.587Z,10.70
2017-12-05T08:58:33.118Z,10.73
2017-12-05T08:59:35.681Z,12.10
2017-12-05T09:00:38.205Z,12.13
2017-12-05T09:01:40.723Z,12.37
2017-12-05T09:02:43.245Z,12.23
2017-12-05T09:03:45.761Z,11.77
2017-12-05T09:04:48.311Z,12.00
2017-12-05T09:05:50.835Z,12.70
2017-12-05T09:06:53.356Z,12.30
2017-12-05T09:07:55.878Z,12.37
2017-12-05T09:08:58.397Z,11.75
2017-12-05T09:10:01.817Z,10.65
2017-12-05T09:11:04.333Z,12.30
2017-12-05T09:12:06.900Z,12.63
2017-12-05T09:13:09.421Z,12.48
2017-12-05T09:14:11.945Z,13.30
2017-12-05T09:15:15.246Z,12.30
2017-12-05T09:16:17.797Z,12.90
2017-12-05T09:17:21.201Z,12.32
2017-12-05T09:18:23.757Z,11.38
2017-12-05T09:19:27.058Z,12.63
2017-12-05T09:20:29.601Z,13.60
2017-12-05T09:21:32.881Z,12.30
2017-12-05T09:22:36.317Z,12.60
2017-12-05T09:23:38.881Z,13.57
2017-12-05T09:24:41.404Z,13.35
2017-12-05T09:25:44.684Z,14.82
2017-12-05T09:26:47.990Z,12.95
2017-12-05T09:27:50.554Z,12.82
2017-12-05T09:28:53.077Z,12.35
2017-12-05T09:29:55.592Z,11.82
2017-12-05T09:30:58.124Z,12.25
2017-12-05T09:32:00.690Z,13.20
2017-12-05T09:33:03.205Z,14.45
2017-12-05T09:34:05.718Z,14.55
2017-12-05T09:35:08.438Z,15.52
2017-12-05T09:36:10.953Z,16.65
2017-12-05T09:37:13.527Z,15.18
2017-12-05T09:38:16.057Z,13.68
2017-12-05T09:39:18.581Z,14.70
2017-12-05T09:40:21.127Z,16.50
2017-12-05T09:41:24.410Z,16.60
2017-12-05T09:42:27.733Z,16.15
2017-12-05T09:43:30.257Z,15.45
2017-12-05T09:44:32.764Z,16.40
2017-12-05T09:45:35.278Z,16.33
2017-12-05T09:46:37.798Z,14.35
2017-12-05T09:47:40.358Z,14.93
2017-12-05T09:48:42.885Z,14.02
2017-12-05T09:49:45.403Z,15.38
2017-12-05T09:50:47.929Z,15.35
2017-12-05T09:51:51.213Z,16.80
2017-12-05T09:52:53.779Z,15.75
2017-12-05T09:53:57.058Z,15.65
2017-12-05T09:55:00.346Z,16.37
2017-12-05T09:56:03.629Z,15.20
2017-12-05T09:57:06.923Z,14.40
2017-12-05T09:58:09.493Z,17.75
2017-12-05T09:59:12.026Z,17.08
2017-12-05T10:00:14.549Z,16.05
2017-12-05T10:01:17.069Z,16.25
2017-12-05T10:02:20.353Z,17.65
2017-12-05T10:03:22.928Z,14.95
2017-12-05T10:04:26.220Z,14.73
2017-12-05T10:05:29.553Z,15.52
2017-12-05T10:06:32.077Z,16.45
2017-12-05T10:07:34.603Z,15.63
2017-12-05T10:08:37.153Z,15.18
2017-12-05T10:09:39.673Z,14.77
2017-12-05T10:10:42.197Z,17.33
2017-12-05T10:11:44.755Z,14.95
2017-12-05T10:12:47.281Z,15.80
2017-12-05T10:13:49.854Z,17.20
2017-12-05T10:14:52.373Z,16.67
2017-12-05T10:15:54.885Z,18.65
2017-12-05T10:16:57.405Z,18.15
2017-12-05T10:17:59.931Z,16.40
2017-12-05T10:19:02.482Z,17.80
2017-12-05T10:20:05.045Z,16.15
2017-12-05T10:21:07.596Z,16.00
2017-12-05T10:22:10.886Z,16.12
2017-12-05T10:23:13.405Z,14.18
2017-12-05T10:24:15.953Z,16.52
2017-12-05T10:25:18.474Z,15.18
2017-12-05T10:26:21.769Z,15.95
2017-12-05T10:27:24.303Z,16.80
2017-12-05T10:28:26.860Z,16.80
2017-12-05T10:29:29.426Z,16.15
2017-12-05T10:30:31.954Z,14.20
2017-12-05T10:31:34.469Z,14.35
2017-12-05T10:32:36.992Z,14.10
2017-12-05T10:33:39.510Z,12.50
2017-12-05T10:34:42.822Z,15.15
2017-12-05T10:35:45.342Z,12.20
2017-12-05T10:36:47.915Z,13.27
2017-12-05T10:37:50.438Z,14.10
2017-12-05T10:38:52.956Z,16.10
2017-12-05T10:39:56.244Z,16.85
2017-12-05T10:40:59.702Z,13.93
2017-12-05T10:42:02.256Z,13.88
2017-12-05T10:43:04.798Z,14.60
2017-12-05T10:44:07.343Z,14.70
2017-12-05T10:45:09.876Z,13.90
2017-12-05T10:46:12.392Z,14.45
2017-12-05T10:47:14.955Z,14.40
2017-12-05T10:48:17.518Z,14.30
2017-12-05T10:49:20.049Z,14.13
2017-12-05T10:50:22.561Z,14.43
2017-12-05T10:51:25.090Z,14.68
2017-12-05T10:52:28.390Z,14.75
2017-12-05T10:53:30.958Z,16.27
2017-12-05T10:54:33.499Z,13.68
2017-12-05T10:55:36.021Z,15.80
2017-12-05T10:56:38.540Z,14.43
2017-12-05T10:57:41.856Z,14.45
2017-12-05T10:58:44.418Z,15.02
2017-12-05T10:59:46.939Z,14.20
2017-12-05T11:00:49.468Z,13.62
2017-12-05T11:01:52.005Z,14.60
2017-12-05T11:02:54.528Z,13.45
2017-12-05T11:03:57.100Z,12.50
2017-12-05T11:04:59.620Z,13.62
2017-12-05T11:06:02.135Z,14.02
2017-12-05T11:07:04.666Z,14.00
2017-12-05T11:08:07.184Z,14.25
2017-12-05T11:09:10.513Z,12.95
2017-12-05T11:10:13.033Z,13.55
2017-12-05T11:11:16.320Z,13.45
2017-12-05T11:12:18.863Z,12.85
2017-12-05T11:13:21.386Z,12.60
2017-12-05T11:14:23.938Z,13.35
2017-12-05T11:15:26.497Z,13.95
2017-12-05T11:16:29.060Z,13.80
2017-12-05T11:17:31.590Z,12.48
2017-12-05T11:18:34.113Z,12.43
2017-12-05T11:19:36.674Z,13.38
2017-12-05T11:20:39.205Z,13.88
2017-12-05T11:21:41.726Z,14.90
2017-12-05T11:22:44.301Z,14.00
2017-12-05T11:23:46.838Z,14.70
2017-12-05T11:24:49.396Z,14.65
2017-12-05T11:25:51.954Z,14.05
2017-12-05T11:26:55.232Z,15.55
2017-12-05T11:27:58.517Z,13.43
2017-12-05T11:29:01.801Z,13.95
2017-12-05T11:30:05.122Z,12.82
2017-12-05T11:31:07.721Z,14.85
2017-12-05T11:32:10.255Z,14.27
2017-12-05T11:33:12.774Z,13.95
2017-12-05T11:34:16.100Z,13.95
2017-12-05T11:35:18.654Z,13.40
2017-12-05T11:36:21.170Z,14.63
2017-12-05T11:37:23.748Z,13.88
2017-12-05T11:38:26.266Z,15.18
2017-12-05T11:39:28.794Z,14.93
2017-12-05T11:40:32.072Z,14.13
2017-12-05T11:41:35.351Z,14.25
2017-12-05T11:42:37.926Z,16.98
2017-12-05T11:43:41.213Z,14.60
2017-12-05T11:44:44.511Z,14.02
2017-12-05T11:45:47.040Z,14.27
2017-12-05T11:46:49.563Z,14.27
2017-12-05T11:47:52.129Z,13.18
2017-12-05T11:48:54.679Z,14.40
2017-12-05T11:49:57.210Z,15.73
2017-12-05T11:50:59.729Z,15.65
2017-12-05T11:52:02.261Z,15.93
2017-12-05T11:53:05.579Z,15.85
2017-12-05T11:54:08.143Z,16.73
2017-12-05T11:55:10.702Z,16.60
2017-12-05T11:56:13.226Z,16.35
2017-12-05T11:57:15.740Z,15.30
2017-12-05T11:58:18.269Z,16.17
2017-12-05T11:59:21.588Z,16.73
2017-12-05T12:00:24.121Z,15.95
2017-12-05T12:01:27.422Z,15.75
2017-12-05T12:02:29.937Z,16.37
2017-12-05T12:03:32.484Z,16.73
2017-12-05T12:04:35.058Z,17.52
2017-12-05T12:05:37.657Z,17.45
2017-12-05T12:06:40.179Z,17.85
2017-12-05T12:07:42.719Z,15.77
2017-12-05T12:08:45.248Z,15.73
2017-12-05T12:09:47.813Z,14.85
2017-12-05T12:10:50.329Z,17.10
2017-12-05T12:11:52.850Z,17.98
2017-12-05T12:12:55.370Z,17.92
2017-12-05T12:13:57.894Z,16.87
2017-12-05T12:15:01.213Z,17.02
2017-12-05T12:16:03.732Z,17.05
2017-12-05T12:17:06.345Z,16.70
2017-12-05T12:18:08.910Z,16.65
2017-12-05T12:19:11.432Z,17.87
2017-12-05T12:20:13.956Z,17.60
2017-12-05T12:21:16.536Z,15.60
2017-12-05T12:22:19.100Z,16.90
2017-12-05T12:23:21.614Z,17.75
2017-12-05T12:24:24.897Z,17.08
2017-12-05T12:25:28.181Z,17.73
2017-12-05T12:26:31.472Z,17.75
2017-12-05T12:27:34.037Z,11.85
2017-12-05T12:28:37.333Z,16.98
2017-12-05T12:29:39.853Z,15.68
2017-12-05T12:30:42.365Z,15.70
2017-12-05T12:31:44.890Z,17.65
2017-12-05T12:32:47.453Z,17.23
2017-12-05T12:33:50.075Z,18.62
2017-12-05T12:34:52.602Z,19.05
2017-12-05T12:35:55.125Z,17.23
2017-12-05T12:36:57.656Z,16.42
2017-12-05T12:38:00.992Z,18.58
2017-12-05T12:39:03.514Z,19.00
2017-12-05T12:40:06.039Z,19.20
2017-12-05T12:41:08.569Z,19.70
2017-12-05T12:42:11.087Z,18.27
2017-12-05T12:43:14.417Z,19.25
2017-12-05T12:44:16.949Z,18.20
2017-12-05T12:45:19.483Z,19.50
2017-12-05T12:46:22.000Z,17.50
2017-12-05T12:47:24.530Z,18.77
2017-12-05T12:48:27.093Z,17.58
2017-12-05T12:49:29.609Z,19.05
2017-12-05T12:50:32.142Z,18.55
2017-12-05T12:51:35.420Z,17.15
2017-12-05T12:52:38.850Z,17.77
2017-12-05T12:53:41.382Z,18.02
2017-12-05T12:54:44.665Z,19.95
2017-12-05T12:55:47.943Z,17.62
2017-12-05T12:56:51.286Z,17.98
2017-12-05T12:57:53.804Z,17.30
2017-12-05T12:58:56.333Z,15.52
2017-12-05T12:59:58.852Z,16.48
2017-12-05T13:01:01.399Z,17.95
2017-12-05T13:02:04.708Z,18.48
2017-12-05T13:03:07.223Z,18.30
2017-12-05T13:04:09.774Z,17.45
2017-12-05T13:05:12.298Z,16.77
2017-12-05T13:06:14.854Z,16.90
2017-12-05T13:07:17.366Z,15.65
2017-12-05T13:08:19.922Z,17.00
2017-12-05T13:09:22.442Z,16.30
2017-12-05T13:10:25.726Z,17.45
2017-12-05T13:11:29.009Z,17.87
2017-12-05T13:12:32.293Z,15.50
2017-12-05T13:13:35.602Z,17.62
2017-12-05T13:14:38.115Z,18.27
2017-12-05T13:15:40.636Z,17.10
2017-12-05T13:16:43.164Z,15.63
2017-12-05T13:17:46.445Z,18.35
2017-12-05T13:18:48.998Z,16.52
2017-12-05T13:19:51.513Z,17.62
2017-12-05T13:20:54.042Z,17.98
2017-12-05T13:21:56.569Z,16.80
2017-12-05T13:22:59.091Z,17.70
2017-12-05T13:24:01.647Z,17.20
2017-12-05T13:25:04.968Z,18.20
2017-12-05T13:26:07.487Z,17.55
2017-12-05T13:27:10.009Z,16.48
2017-12-05T13:28:12.530Z,16.55
2017-12-05T13:29:15.821Z,16.98
2017-12-05T13:30:19.138Z,17.25
2017-12-05T13:31:21.649Z,16.30
2017-12-05T13:32:24.177Z,16.87
2017-12-05T13:33:26.709Z,16.25
2017-12-05T13:34:29.286Z,16.15
2017-12-05T13:35:31.809Z,16.23
2017-12-05T13:36:34.366Z,15.38
2017-12-05T13:37:36.950Z,15.80